sensor_id;sensor_type;location;lat;lon;timestamp;P1;durP1;ratioP1;P2;durP2;ratioP2
21754;SDS011;11039;50.028;19.938;2023-07-31T00:00:24;4.45;;;3.70;;
21754;SDS011;11039;50.028;19.938;2023-07-31T00:02:51;4.07;;;3.50;;
21754;SDS011;11039;50.028;19.938;2023-07-31T00:05:17;4.00;;;3.30;;
21754;SDS011;11039;50.028;19.938;2023-07-31T00:07:43;5.75;;;3.60;;
21754;SDS011;11039;50.028;19.938;2023-07-31T00:10:09;3.97;;;3.58;;
21754;SDS011;11039;50.028;19.938;2023-07-31T00:12:35;4.25;;;3.30;;
21754;SDS011;11039;50.028;19.938;2023-07-31T00:15:02;3.85;;;3.13;;
21754;SDS011;11039;50.028;19.938;2023-07-31T00:17:28;3.83;;;3.30;;
21754;SDS011;11039;50.028;19.938;2023-07-31T00:19:54;3.83;;;3.20;;
21754;SDS011;11039;50.028;19.938;2023-07-31T00:22:20;3.72;;;3.20;;
21754;SDS011;11039;50.028;19.938;2023-07-31T00:24:46;4.30;;;3.90;;
21754;SDS011;11039;50.028;19.938;2023-07-31T00:27:12;6.25;;;3.30;;
21754;SDS011;11039;50.028;19.938;2023-07-31T00:29:38;3.90;;;3.40;;
21754;SDS011;11039;50.028;19.938;2023-07-31T00:32:04;3.47;;;3.17;;
21754;SDS011;11039;50.028;19.938;2023-07-31T00:34:30;4.47;;;3.40;;
21754;SDS011;11039;50.028;19.938;2023-07-31T00:36:56;3.58;;;3.03;;
21754;SDS011;11039;50.028;19.938;2023-07-31T00:39:22;3.47;;;3.17;;
21754;SDS011;11039;50.028;19.938;2023-07-31T00:41:48;6.53;;;3.45;;
21754;SDS011;11039;50.028;19.938;2023-07-31T00:44:14;3.50;;;3.20;;
21754;SDS011;11039;50.028;19.938;2023-07-31T00:46:40;4.20;;;3.35;;
21754;SDS011;11039;50.028;19.938;2023-07-31T00:49:06;3.10;;;2.80;;
21754;SDS011;11039;50.028;19.938;2023-07-31T00:51:33;4.05;;;3.13;;
21754;SDS011;11039;50.028;19.938;2023-07-31T00:56:18;4.55;;;2.92;;
21754;SDS011;11039;50.028;19.938;2023-07-31T00:58:44;3.53;;;2.90;;
21754;SDS011;11039;50.028;19.938;2023-07-31T01:01:10;3.58;;;3.25;;
21754;SDS011;11039;50.028;19.938;2023-07-31T01:03:36;4.75;;;2.85;;
21754;SDS011;11039;50.028;19.938;2023-07-31T01:06:14;3.47;;;3.03;;
21754;SDS011;11039;50.028;19.938;2023-07-31T01:08:48;3.63;;;3.03;;
21754;SDS011;11039;50.028;19.938;2023-07-31T01:11:55;3.55;;;3.25;;
21754;SDS011;11039;50.028;19.938;2023-07-31T01:16:30;3.90;;;3.30;;
21754;SDS011;11039;50.028;19.938;2023-07-31T01:18:56;4.22;;;3.40;;
21754;SDS011;11039;50.028;19.938;2023-07-31T01:26:39;4.05;;;3.15;;
21754;SDS011;11039;50.028;19.938;2023-07-31T01:29:10;4.00;;;3.22;;
21754;SDS011;11039;50.028;19.938;2023-07-31T01:31:41;3.15;;;2.67;;
21754;SDS011;11039;50.028;19.938;2023-07-31T01:34:07;3.47;;;3.17;;
21754;SDS011;11039;50.028;19.938;2023-07-31T01:38:53;3.70;;;2.80;;
21754;SDS011;11039;50.028;19.938;2023-07-31T01:41:23;3.13;;;2.78;;
21754;SDS011;11039;50.028;19.938;2023-07-31T01:43:49;3.95;;;3.15;;
21754;SDS011;11039;50.028;19.938;2023-07-31T01:46:15;3.20;;;2.90;;
21754;SDS011;11039;50.028;19.938;2023-07-31T01:48:41;3.80;;;2.78;;
21754;SDS011;11039;50.028;19.938;2023-07-31T01:51:07;3.28;;;2.97;;
21754;SDS011;11039;50.028;19.938;2023-07-31T01:53:33;3.47;;;3.13;;
21754;SDS011;11039;50.028;19.938;2023-07-31T01:55:59;3.33;;;3.03;;
21754;SDS011;11039;50.028;19.938;2023-07-31T01:58:25;3.05;;;2.80;;
21754;SDS011;11039;50.028;19.938;2023-07-31T02:00:51;3.00;;;2.67;;
21754;SDS011;11039;50.028;19.938;2023-07-31T02:03:17;3.45;;;2.90;;
21754;SDS011;11039;50.028;19.938;2023-07-31T02:05:44;3.03;;;2.70;;
21754;SDS011;11039;50.028;19.938;2023-07-31T02:08:10;3.22;;;2.92;;
21754;SDS011;11039;50.028;19.938;2023-07-31T02:10:36;3.63;;;2.85;;
21754;SDS011;11039;50.028;19.938;2023-07-31T02:13:02;3.42;;;2.90;;
21754;SDS011;11039;50.028;19.938;2023-07-31T02:15:29;2.90;;;2.63;;
21754;SDS011;11039;50.028;19.938;2023-07-31T02:17:55;3.17;;;2.72;;
21754;SDS011;11039;50.028;19.938;2023-07-31T02:20:21;3.20;;;2.80;;
21754;SDS011;11039;50.028;19.938;2023-07-31T02:22:47;3.17;;;2.80;;
21754;SDS011;11039;50.028;19.938;2023-07-31T02:25:13;4.18;;;3.15;;
21754;SDS011;11039;50.028;19.938;2023-07-31T02:27:39;3.55;;;3.25;;
21754;SDS011;11039;50.028;19.938;2023-07-31T02:30:06;3.28;;;2.80;;
21754;SDS011;11039;50.028;19.938;2023-07-31T02:32:32;4.57;;;2.97;;
21754;SDS011;11039;50.028;19.938;2023-07-31T02:34:58;3.58;;;2.65;;
21754;SDS011;11039;50.028;19.938;2023-07-31T02:37:25;4.85;;;2.97;;
21754;SDS011;11039;50.028;19.938;2023-07-31T02:39:51;4.30;;;3.15;;
21754;SDS011;11039;50.028;19.938;2023-07-31T02:42:17;3.15;;;2.67;;
21754;SDS011;11039;50.028;19.938;2023-07-31T02:44:43;3.53;;;2.95;;
21754;SDS011;11039;50.028;19.938;2023-07-31T02:47:09;3.10;;;2.60;;
21754;SDS011;11039;50.028;19.938;2023-07-31T02:49:35;3.88;;;2.80;;
21754;SDS011;11039;50.028;19.938;2023-07-31T02:52:01;3.70;;;3.20;;
21754;SDS011;11039;50.028;19.938;2023-07-31T02:54:27;3.22;;;2.63;;
21754;SDS011;11039;50.028;19.938;2023-07-31T02:56:53;3.30;;;3.00;;
21754;SDS011;11039;50.028;19.938;2023-07-31T02:59:19;3.13;;;2.67;;
21754;SDS011;11039;50.028;19.938;2023-07-31T03:01:46;3.90;;;2.80;;
21754;SDS011;11039;50.028;19.938;2023-07-31T03:04:12;2.90;;;2.67;;
21754;SDS011;11039;50.028;19.938;2023-07-31T03:08:56;3.65;;;2.92;;
21754;SDS011;11039;50.028;19.938;2023-07-31T03:11:22;4.85;;;2.85;;
21754;SDS011;11039;50.028;19.938;2023-07-31T03:13:48;5.50;;;2.70;;
21754;SDS011;11039;50.028;19.938;2023-07-31T03:16:14;3.65;;;2.58;;
21754;SDS011;11039;50.028;19.938;2023-07-31T03:18:40;3.38;;;3.05;;
21754;SDS011;11039;50.028;19.938;2023-07-31T03:21:06;3.15;;;2.53;;
21754;SDS011;11039;50.028;19.938;2023-07-31T03:23:32;3.90;;;2.72;;
21754;SDS011;11039;50.028;19.938;2023-07-31T03:25:59;3.90;;;2.75;;
21754;SDS011;11039;50.028;19.938;2023-07-31T03:28:25;3.08;;;2.47;;
21754;SDS011;11039;50.028;19.938;2023-07-31T03:30:52;3.28;;;2.90;;
21754;SDS011;11039;50.028;19.938;2023-07-31T03:33:18;3.63;;;2.67;;
21754;SDS011;11039;50.028;19.938;2023-07-31T03:35:44;4.75;;;3.00;;
21754;SDS011;11039;50.028;19.938;2023-07-31T03:38:10;3.63;;;2.58;;
21754;SDS011;11039;50.028;19.938;2023-07-31T03:40:36;3.53;;;2.90;;
21754;SDS011;11039;50.028;19.938;2023-07-31T03:43:02;4.82;;;3.00;;
21754;SDS011;11039;50.028;19.938;2023-07-31T03:45:28;3.70;;;2.95;;
21754;SDS011;11039;50.028;19.938;2023-07-31T03:47:54;4.05;;;2.90;;
21754;SDS011;11039;50.028;19.938;2023-07-31T03:50:20;3.15;;;2.90;;
21754;SDS011;11039;50.028;19.938;2023-07-31T03:52:46;3.47;;;3.00;;
21754;SDS011;11039;50.028;19.938;2023-07-31T03:55:12;4.18;;;2.75;;
21754;SDS011;11039;50.028;19.938;2023-07-31T03:57:38;3.28;;;2.85;;
21754;SDS011;11039;50.028;19.938;2023-07-31T04:00:04;3.88;;;3.00;;
21754;SDS011;11039;50.028;19.938;2023-07-31T04:04:51;3.13;;;2.63;;
21754;SDS011;11039;50.028;19.938;2023-07-31T04:07:17;3.10;;;2.80;;
21754;SDS011;11039;50.028;19.938;2023-07-31T04:09:43;4.28;;;3.00;;
21754;SDS011;11039;50.028;19.938;2023-07-31T04:14:27;3.15;;;2.72;;
21754;SDS011;11039;50.028;19.938;2023-07-31T04:16:53;4.47;;;2.92;;
21754;SDS011;11039;50.028;19.938;2023-07-31T04:19:19;4.07;;;3.03;;
21754;SDS011;11039;50.028;19.938;2023-07-31T04:21:45;3.28;;;2.80;;
21754;SDS011;11039;50.028;19.938;2023-07-31T04:24:11;3.20;;;2.80;;
21754;SDS011;11039;50.028;19.938;2023-07-31T04:26:37;3.30;;;2.50;;
21754;SDS011;11039;50.028;19.938;2023-07-31T04:29:03;3.45;;;2.85;;
21754;SDS011;11039;50.028;19.938;2023-07-31T04:31:29;5.32;;;2.83;;
21754;SDS011;11039;50.028;19.938;2023-07-31T04:33:55;3.10;;;2.80;;
21754;SDS011;11039;50.028;19.938;2023-07-31T04:36:21;3.35;;;2.65;;
21754;SDS011;11039;50.028;19.938;2023-07-31T04:38:47;3.05;;;2.75;;
21754;SDS011;11039;50.028;19.938;2023-07-31T04:41:14;3.50;;;2.60;;
21754;SDS011;11039;50.028;19.938;2023-07-31T04:43:40;3.95;;;2.78;;
21754;SDS011;11039;50.028;19.938;2023-07-31T04:48:24;3.17;;;2.88;;
21754;SDS011;11039;50.028;19.938;2023-07-31T04:50:50;3.70;;;2.92;;
21754;SDS011;11039;50.028;19.938;2023-07-31T04:53:16;3.30;;;2.85;;
21754;SDS011;11039;50.028;19.938;2023-07-31T04:55:42;3.15;;;2.67;;
21754;SDS011;11039;50.028;19.938;2023-07-31T04:58:08;2.80;;;2.50;;
21754;SDS011;11039;50.028;19.938;2023-07-31T05:00:34;4.53;;;2.65;;
21754;SDS011;11039;50.028;19.938;2023-07-31T05:03:00;4.03;;;2.88;;
21754;SDS011;11039;50.028;19.938;2023-07-31T05:05:26;3.58;;;3.17;;
21754;SDS011;11039;50.028;19.938;2023-07-31T05:07:52;3.30;;;3.00;;
21754;SDS011;11039;50.028;19.938;2023-07-31T05:10:18;3.08;;;2.78;;
21754;SDS011;11039;50.028;19.938;2023-07-31T05:12:45;3.53;;;2.85;;
21754;SDS011;11039;50.028;19.938;2023-07-31T05:15:11;2.70;;;2.50;;
21754;SDS011;11039;50.028;19.938;2023-07-31T05:17:37;3.45;;;2.90;;
21754;SDS011;11039;50.028;19.938;2023-07-31T05:20:03;3.35;;;3.05;;
21754;SDS011;11039;50.028;19.938;2023-07-31T05:22:29;3.13;;;2.83;;
21754;SDS011;11039;50.028;19.938;2023-07-31T05:24:55;4.45;;;3.20;;
21754;SDS011;11039;50.028;19.938;2023-07-31T05:27:21;6.10;;;3.05;;
21754;SDS011;11039;50.028;19.938;2023-07-31T05:29:47;9.18;;;3.63;;
21754;SDS011;11039;50.028;19.938;2023-07-31T05:32:13;4.35;;;3.55;;
21754;SDS011;11039;50.028;19.938;2023-07-31T05:34:39;6.30;;;3.60;;
21754;SDS011;11039;50.028;19.938;2023-07-31T05:39:25;4.50;;;3.45;;
21754;SDS011;11039;50.028;19.938;2023-07-31T05:41:51;3.97;;;3.58;;
21754;SDS011;11039;50.028;19.938;2023-07-31T05:44:17;7.93;;;3.53;;
21754;SDS011;11039;50.028;19.938;2023-07-31T05:46:43;4.32;;;3.83;;
21754;SDS011;11039;50.028;19.938;2023-07-31T05:49:09;4.80;;;3.90;;
21754;SDS011;11039;50.028;19.938;2023-07-31T05:51:35;4.55;;;3.75;;
21754;SDS011;11039;50.028;19.938;2023-07-31T05:54:01;4.32;;;3.92;;
21754;SDS011;11039;50.028;19.938;2023-07-31T05:56:27;5.57;;;4.00;;
21754;SDS011;11039;50.028;19.938;2023-07-31T05:58:53;5.45;;;4.45;;
21754;SDS011;11039;50.028;19.938;2023-07-31T06:01:19;5.13;;;4.53;;
21754;SDS011;11039;50.028;19.938;2023-07-31T06:03:46;6.53;;;4.57;;
21754;SDS011;11039;50.028;19.938;2023-07-31T06:06:12;4.38;;;3.88;;
21754;SDS011;11039;50.028;19.938;2023-07-31T06:08:39;4.72;;;4.15;;
21754;SDS011;11039;50.028;19.938;2023-07-31T06:11:05;4.22;;;3.83;;
21754;SDS011;11039;50.028;19.938;2023-07-31T06:13:32;4.90;;;4.47;;
21754;SDS011;11039;50.028;19.938;2023-07-31T06:15:58;5.15;;;4.22;;
21754;SDS011;11039;50.028;19.938;2023-07-31T06:18:24;6.75;;;4.68;;
21754;SDS011;11039;50.028;19.938;2023-07-31T06:20:50;5.07;;;4.55;;
21754;SDS011;11039;50.028;19.938;2023-07-31T06:23:18;6.78;;;4.75;;
21754;SDS011;11039;50.028;19.938;2023-07-31T06:25:45;4.63;;;4.10;;
21754;SDS011;11039;50.028;19.938;2023-07-31T06:28:11;5.70;;;4.60;;
21754;SDS011;11039;50.028;19.938;2023-07-31T06:30:37;7.53;;;4.82;;
21754;SDS011;11039;50.028;19.938;2023-07-31T06:33:03;5.90;;;4.65;;
21754;SDS011;11039;50.028;19.938;2023-07-31T06:35:29;6.75;;;4.00;;
21754;SDS011;11039;50.028;19.938;2023-07-31T06:37:55;4.82;;;4.03;;
21754;SDS011;11039;50.028;19.938;2023-07-31T06:40:22;6.65;;;4.55;;
21754;SDS011;11039;50.028;19.938;2023-07-31T06:42:48;5.80;;;4.25;;
21754;SDS011;11039;50.028;19.938;2023-07-31T06:45:14;6.50;;;4.07;;
21754;SDS011;11039;50.028;19.938;2023-07-31T06:47:40;4.72;;;4.20;;
21754;SDS011;11039;50.028;19.938;2023-07-31T06:50:06;5.60;;;4.57;;
21754;SDS011;11039;50.028;19.938;2023-07-31T06:52:32;5.30;;;4.80;;
21754;SDS011;11039;50.028;19.938;2023-07-31T06:57:18;4.65;;;4.15;;
21754;SDS011;11039;50.028;19.938;2023-07-31T06:59:44;6.00;;;4.07;;
21754;SDS011;11039;50.028;19.938;2023-07-31T07:02:10;4.68;;;4.22;;
21754;SDS011;11039;50.028;19.938;2023-07-31T07:04:36;6.82;;;4.90;;
21754;SDS011;11039;50.028;19.938;2023-07-31T07:07:02;6.13;;;4.10;;
21754;SDS011;11039;50.028;19.938;2023-07-31T07:09:29;5.00;;;4.50;;
21754;SDS011;11039;50.028;19.938;2023-07-31T07:11:55;5.88;;;4.35;;
21754;SDS011;11039;50.028;19.938;2023-07-31T07:14:21;7.47;;;5.07;;
21754;SDS011;11039;50.028;19.938;2023-07-31T07:16:50;5.78;;;3.95;;
21754;SDS011;11039;50.028;19.938;2023-07-31T07:19:16;5.35;;;4.38;;
21754;SDS011;11039;50.028;19.938;2023-07-31T07:21:42;4.90;;;4.07;;
21754;SDS011;11039;50.028;19.938;2023-07-31T07:24:08;6.65;;;4.18;;
21754;SDS011;11039;50.028;19.938;2023-07-31T07:26:34;4.20;;;3.80;;
21754;SDS011;11039;50.028;19.938;2023-07-31T07:29:00;6.50;;;4.30;;
21754;SDS011;11039;50.028;19.938;2023-07-31T07:31:27;5.07;;;4.20;;
21754;SDS011;11039;50.028;19.938;2023-07-31T07:38:30;5.30;;;3.90;;
21754;SDS011;11039;50.028;19.938;2023-07-31T07:40:56;5.38;;;4.18;;
21754;SDS011;11039;50.028;19.938;2023-07-31T07:43:22;4.00;;;3.60;;
21754;SDS011;11039;50.028;19.938;2023-07-31T07:45:49;4.90;;;3.72;;
21754;SDS011;11039;50.028;19.938;2023-07-31T07:48:15;4.90;;;3.58;;
21754;SDS011;11039;50.028;19.938;2023-07-31T07:50:42;5.15;;;3.60;;
21754;SDS011;11039;50.028;19.938;2023-07-31T07:53:08;4.95;;;3.90;;
21754;SDS011;11039;50.028;19.938;2023-07-31T07:57:53;6.15;;;3.60;;
21754;SDS011;11039;50.028;19.938;2023-07-31T08:00:19;4.18;;;3.60;;
21754;SDS011;11039;50.028;19.938;2023-07-31T08:02:45;4.05;;;3.65;;
21754;SDS011;11039;50.028;19.938;2023-07-31T08:05:11;5.28;;;3.60;;
21754;SDS011;11039;50.028;19.938;2023-07-31T08:07:37;4.82;;;3.78;;
21754;SDS011;11039;50.028;19.938;2023-07-31T08:10:03;4.18;;;3.47;;
21754;SDS011;11039;50.028;19.938;2023-07-31T08:12:29;4.15;;;3.53;;
21754;SDS011;11039;50.028;19.938;2023-07-31T08:14:55;4.55;;;3.33;;
21754;SDS011;11039;50.028;19.938;2023-07-31T08:17:22;5.05;;;3.70;;
21754;SDS011;11039;50.028;19.938;2023-07-31T08:19:48;3.72;;;3.42;;
21754;SDS011;11039;50.028;19.938;2023-07-31T08:22:14;4.45;;;3.83;;
21754;SDS011;11039;50.028;19.938;2023-07-31T08:24:40;6.18;;;3.55;;
21754;SDS011;11039;50.028;19.938;2023-07-31T08:27:06;4.60;;;3.33;;
21754;SDS011;11039;50.028;19.938;2023-07-31T08:29:32;4.88;;;3.35;;
21754;SDS011;11039;50.028;19.938;2023-07-31T08:31:58;4.18;;;3.50;;
21754;SDS011;11039;50.028;19.938;2023-07-31T08:34:24;4.10;;;3.47;;
21754;SDS011;11039;50.028;19.938;2023-07-31T08:36:50;4.15;;;3.33;;
21754;SDS011;11039;50.028;19.938;2023-07-31T08:39:16;4.13;;;3.72;;
21754;SDS011;11039;50.028;19.938;2023-07-31T08:41:42;5.03;;;3.33;;
21754;SDS011;11039;50.028;19.938;2023-07-31T08:44:08;4.65;;;3.35;;
21754;SDS011;11039;50.028;19.938;2023-07-31T08:46:36;5.63;;;3.30;;
21754;SDS011;11039;50.028;19.938;2023-07-31T08:49:04;3.83;;;3.20;;
21754;SDS011;11039;50.028;19.938;2023-07-31T08:51:31;4.50;;;3.75;;
21754;SDS011;11039;50.028;19.938;2023-07-31T08:53:58;3.55;;;3.25;;
21754;SDS011;11039;50.028;19.938;2023-07-31T08:56:24;5.05;;;3.72;;
21754;SDS011;11039;50.028;19.938;2023-07-31T08:58:51;6.20;;;3.67;;
21754;SDS011;11039;50.028;19.938;2023-07-31T09:01:18;5.43;;;3.65;;
21754;SDS011;11039;50.028;19.938;2023-07-31T09:03:44;4.15;;;3.28;;
21754;SDS011;11039;50.028;19.938;2023-07-31T09:06:11;5.18;;;3.35;;
21754;SDS011;11039;50.028;19.938;2023-07-31T09:08:39;4.72;;;3.30;;
21754;SDS011;11039;50.028;19.938;2023-07-31T09:11:07;4.03;;;3.47;;
21754;SDS011;11039;50.028;19.938;2023-07-31T09:13:33;5.50;;;3.00;;
21754;SDS011;11039;50.028;19.938;2023-07-31T09:15:59;4.55;;;3.50;;
21754;SDS011;11039;50.028;19.938;2023-07-31T09:18:25;4.20;;;3.22;;
21754;SDS011;11039;50.028;19.938;2023-07-31T09:21:01;4.45;;;3.58;;
21754;SDS011;11039;50.028;19.938;2023-07-31T09:23:27;4.85;;;3.20;;
21754;SDS011;11039;50.028;19.938;2023-07-31T09:26:05;6.13;;;3.50;;
21754;SDS011;11039;50.028;19.938;2023-07-31T09:28:31;5.15;;;3.25;;
21754;SDS011;11039;50.028;19.938;2023-07-31T09:30:57;3.72;;;3.03;;
21754;SDS011;11039;50.028;19.938;2023-07-31T09:33:23;5.28;;;3.45;;
21754;SDS011;11039;50.028;19.938;2023-07-31T09:35:49;4.13;;;3.10;;
21754;SDS011;11039;50.028;19.938;2023-07-31T09:38:15;6.72;;;3.53;;
21754;SDS011;11039;50.028;19.938;2023-07-31T09:40:45;6.68;;;3.60;;
21754;SDS011;11039;50.028;19.938;2023-07-31T09:43:13;5.78;;;3.70;;
21754;SDS011;11039;50.028;19.938;2023-07-31T09:45:40;4.60;;;3.33;;
21754;SDS011;11039;50.028;19.938;2023-07-31T09:48:07;3.72;;;3.28;;
21754;SDS011;11039;50.028;19.938;2023-07-31T09:50:34;5.43;;;3.10;;
21754;SDS011;11039;50.028;19.938;2023-07-31T09:53:02;5.43;;;3.28;;
21754;SDS011;11039;50.028;19.938;2023-07-31T09:55:28;4.45;;;3.63;;
21754;SDS011;11039;50.028;19.938;2023-07-31T09:57:56;4.20;;;3.20;;
21754;SDS011;11039;50.028;19.938;2023-07-31T10:00:23;3.33;;;2.85;;
21754;SDS011;11039;50.028;19.938;2023-07-31T10:02:52;3.97;;;3.28;;
21754;SDS011;11039;50.028;19.938;2023-07-31T10:05:19;3.97;;;2.67;;
21754;SDS011;11039;50.028;19.938;2023-07-31T10:07:46;6.72;;;3.30;;
21754;SDS011;11039;50.028;19.938;2023-07-31T10:12:35;3.72;;;3.10;;
21754;SDS011;11039;50.028;19.938;2023-07-31T10:15:02;3.25;;;2.95;;
21754;SDS011;11039;50.028;19.938;2023-07-31T10:17:29;3.78;;;3.15;;
21754;SDS011;11039;50.028;19.938;2023-07-31T10:19:55;3.58;;;2.97;;
21754;SDS011;11039;50.028;19.938;2023-07-31T10:22:22;5.45;;;3.60;;
21754;SDS011;11039;50.028;19.938;2023-07-31T10:24:48;3.67;;;2.88;;
21754;SDS011;11039;50.028;19.938;2023-07-31T10:27:15;3.60;;;2.90;;
21754;SDS011;11039;50.028;19.938;2023-07-31T10:29:43;3.58;;;3.08;;
21754;SDS011;11039;50.028;19.938;2023-07-31T10:32:09;4.80;;;3.35;;
21754;SDS011;11039;50.028;19.938;2023-07-31T10:34:38;3.20;;;2.90;;
21754;SDS011;11039;50.028;19.938;2023-07-31T10:39:57;4.28;;;2.90;;
21754;SDS011;11039;50.028;19.938;2023-07-31T10:42:27;3.22;;;2.92;;
21754;SDS011;11039;50.028;19.938;2023-07-31T10:45:02;4.40;;;3.28;;
21754;SDS011;11039;50.028;19.938;2023-07-31T10:47:28;3.30;;;2.85;;
21754;SDS011;11039;50.028;19.938;2023-07-31T10:50:12;4.88;;;2.95;;
21754;SDS011;11039;50.028;19.938;2023-07-31T10:52:38;5.88;;;3.05;;
21754;SDS011;11039;50.028;19.938;2023-07-31T10:58:07;3.40;;;2.85;;
21754;SDS011;11039;50.028;19.938;2023-07-31T11:00:34;4.38;;;3.17;;
21754;SDS011;11039;50.028;19.938;2023-07-31T11:03:06;3.72;;;3.08;;
21754;SDS011;11039;50.028;19.938;2023-07-31T11:05:46;3.95;;;3.15;;
21754;SDS011;11039;50.028;19.938;2023-07-31T11:08:13;5.15;;;3.03;;
21754;SDS011;11039;50.028;19.938;2023-07-31T11:12:58;4.25;;;2.95;;
21754;SDS011;11039;50.028;19.938;2023-07-31T11:15:26;5.30;;;2.97;;
21754;SDS011;11039;50.028;19.938;2023-07-31T11:17:52;6.63;;;2.80;;
21754;SDS011;11039;50.028;19.938;2023-07-31T11:20:18;4.72;;;3.08;;
21754;SDS011;11039;50.028;19.938;2023-07-31T11:22:44;3.55;;;2.75;;
21754;SDS011;11039;50.028;19.938;2023-07-31T11:25:10;3.15;;;2.60;;
21754;SDS011;11039;50.028;19.938;2023-07-31T11:27:39;3.35;;;2.83;;
21754;SDS011;11039;50.028;19.938;2023-07-31T11:30:06;5.28;;;3.00;;
21754;SDS011;11039;50.028;19.938;2023-07-31T11:32:32;4.00;;;3.10;;
21754;SDS011;11039;50.028;19.938;2023-07-31T11:34:58;3.67;;;2.88;;
21754;SDS011;11039;50.028;19.938;2023-07-31T11:37:24;6.97;;;2.83;;
21754;SDS011;11039;50.028;19.938;2023-07-31T11:40:00;4.95;;;2.75;;
21754;SDS011;11039;50.028;19.938;2023-07-31T11:42:26;3.38;;;2.60;;
21754;SDS011;11039;50.028;19.938;2023-07-31T11:44:52;4.30;;;2.70;;
21754;SDS011;11039;50.028;19.938;2023-07-31T11:47:18;5.78;;;3.13;;
21754;SDS011;11039;50.028;19.938;2023-07-31T11:49:44;2.95;;;2.60;;
21754;SDS011;11039;50.028;19.938;2023-07-31T11:52:10;3.58;;;2.60;;
21754;SDS011;11039;50.028;19.938;2023-07-31T11:54:37;2.53;;;2.33;;
21754;SDS011;11039;50.028;19.938;2023-07-31T11:57:03;2.47;;;2.28;;
21754;SDS011;11039;50.028;19.938;2023-07-31T11:59:30;3.92;;;2.25;;
21754;SDS011;11039;50.028;19.938;2023-07-31T12:01:56;3.50;;;2.65;;
21754;SDS011;11039;50.028;19.938;2023-07-31T12:04:23;4.05;;;2.92;;
21754;SDS011;11039;50.028;19.938;2023-07-31T12:06:50;5.45;;;2.88;;
21754;SDS011;11039;50.028;19.938;2023-07-31T12:09:18;3.50;;;2.50;;
21754;SDS011;11039;50.028;19.938;2023-07-31T12:11:45;3.88;;;2.40;;
21754;SDS011;11039;50.028;19.938;2023-07-31T12:14:44;2.85;;;2.20;;
21754;SDS011;11039;50.028;19.938;2023-07-31T12:17:04;2.95;;;2.33;;
21754;SDS011;11039;50.028;19.938;2023-07-31T12:19:32;2.90;;;2.40;;
21754;SDS011;11039;50.028;19.938;2023-07-31T12:21:58;3.08;;;2.72;;
21754;SDS011;11039;50.028;19.938;2023-07-31T12:24:28;3.08;;;2.78;;
21754;SDS011;11039;50.028;19.938;2023-07-31T12:26:54;2.88;;;2.30;;
21754;SDS011;11039;50.028;19.938;2023-07-31T12:31:40;4.15;;;2.80;;
21754;SDS011;11039;50.028;19.938;2023-07-31T12:34:17;5.25;;;2.47;;
21754;SDS011;11039;50.028;19.938;2023-07-31T12:36:43;3.17;;;2.53;;
21754;SDS011;11039;50.028;19.938;2023-07-31T12:39:09;3.40;;;2.47;;
21754;SDS011;11039;50.028;19.938;2023-07-31T12:41:36;5.43;;;2.67;;
21754;SDS011;11039;50.028;19.938;2023-07-31T12:44:02;5.55;;;3.10;;
21754;SDS011;11039;50.028;19.938;2023-07-31T12:46:28;3.25;;;2.58;;
21754;SDS011;11039;50.028;19.938;2023-07-31T12:48:54;3.53;;;2.60;;
21754;SDS011;11039;50.028;19.938;2023-07-31T12:51:21;3.28;;;2.90;;
21754;SDS011;11039;50.028;19.938;2023-07-31T12:53:47;6.50;;;2.92;;
21754;SDS011;11039;50.028;19.938;2023-07-31T12:56:13;3.38;;;2.60;;
21754;SDS011;11039;50.028;19.938;2023-07-31T12:58:39;3.75;;;2.92;;
21754;SDS011;11039;50.028;19.938;2023-07-31T13:01:05;4.70;;;2.83;;
21754;SDS011;11039;50.028;19.938;2023-07-31T13:03:31;2.90;;;2.42;;
21754;SDS011;11039;50.028;19.938;2023-07-31T13:05:57;4.55;;;2.53;;
21754;SDS011;11039;50.028;19.938;2023-07-31T13:08:23;4.32;;;3.00;;
21754;SDS011;11039;50.028;19.938;2023-07-31T13:10:49;3.28;;;2.97;;
21754;SDS011;11039;50.028;19.938;2023-07-31T13:13:15;4.03;;;2.65;;
21754;SDS011;11039;50.028;19.938;2023-07-31T13:15:41;4.13;;;2.88;;
21754;SDS011;11039;50.028;19.938;2023-07-31T13:18:07;4.97;;;2.92;;
21754;SDS011;11039;50.028;19.938;2023-07-31T13:20:33;5.05;;;2.90;;
21754;SDS011;11039;50.028;19.938;2023-07-31T13:22:59;4.32;;;2.70;;
21754;SDS011;11039;50.028;19.938;2023-07-31T13:25:25;4.53;;;3.13;;
21754;SDS011;11039;50.028;19.938;2023-07-31T13:27:52;4.05;;;3.35;;
21754;SDS011;11039;50.028;19.938;2023-07-31T13:30:18;6.07;;;3.33;;
21754;SDS011;11039;50.028;19.938;2023-07-31T13:32:44;3.75;;;2.90;;
21754;SDS011;11039;50.028;19.938;2023-07-31T13:35:10;3.42;;;3.00;;
21754;SDS011;11039;50.028;19.938;2023-07-31T13:37:37;5.85;;;3.13;;
21754;SDS011;11039;50.028;19.938;2023-07-31T13:40:03;3.33;;;2.78;;
21754;SDS011;11039;50.028;19.938;2023-07-31T13:42:30;5.80;;;2.95;;
21754;SDS011;11039;50.028;19.938;2023-07-31T13:44:56;3.67;;;2.90;;
21754;SDS011;11039;50.028;19.938;2023-07-31T13:47:22;5.97;;;3.15;;
21754;SDS011;11039;50.028;19.938;2023-07-31T13:49:48;7.03;;;3.50;;
21754;SDS011;11039;50.028;19.938;2023-07-31T13:52:14;5.28;;;2.97;;
21754;SDS011;11039;50.028;19.938;2023-07-31T13:54:40;4.85;;;3.10;;
21754;SDS011;11039;50.028;19.938;2023-07-31T13:57:07;4.47;;;2.88;;
21754;SDS011;11039;50.028;19.938;2023-07-31T13:59:33;7.88;;;2.95;;
21754;SDS011;11039;50.028;19.938;2023-07-31T14:01:59;4.85;;;3.10;;
21754;SDS011;11039;50.028;19.938;2023-07-31T14:04:25;4.57;;;3.05;;
21754;SDS011;11039;50.028;19.938;2023-07-31T14:06:51;6.32;;;3.28;;
21754;SDS011;11039;50.028;19.938;2023-07-31T14:09:18;6.10;;;2.85;;
21754;SDS011;11039;50.028;19.938;2023-07-31T14:11:44;3.35;;;2.90;;
21754;SDS011;11039;50.028;19.938;2023-07-31T14:14:10;6.20;;;2.90;;
21754;SDS011;11039;50.028;19.938;2023-07-31T14:16:36;4.10;;;3.03;;
21754;SDS011;11039;50.028;19.938;2023-07-31T14:19:02;3.85;;;3.10;;
21754;SDS011;11039;50.028;19.938;2023-07-31T14:21:28;4.57;;;2.80;;
21754;SDS011;11039;50.028;19.938;2023-07-31T14:23:54;3.15;;;2.70;;
21754;SDS011;11039;50.028;19.938;2023-07-31T14:26:20;4.85;;;2.90;;
21754;SDS011;11039;50.028;19.938;2023-07-31T14:28:46;3.70;;;2.92;;
21754;SDS011;11039;50.028;19.938;2023-07-31T14:31:12;3.90;;;2.83;;
21754;SDS011;11039;50.028;19.938;2023-07-31T14:33:38;3.55;;;2.80;;
21754;SDS011;11039;50.028;19.938;2023-07-31T14:36:04;2.92;;;2.40;;
21754;SDS011;11039;50.028;19.938;2023-07-31T14:38:30;5.05;;;2.90;;
21754;SDS011;11039;50.028;19.938;2023-07-31T14:43:13;3.88;;;2.80;;
21754;SDS011;11039;50.028;19.938;2023-07-31T14:45:39;5.00;;;2.60;;
21754;SDS011;11039;50.028;19.938;2023-07-31T14:48:05;2.80;;;2.33;;
21754;SDS011;11039;50.028;19.938;2023-07-31T14:50:31;3.63;;;2.50;;
21754;SDS011;11039;50.028;19.938;2023-07-31T14:52:57;9.35;;;2.90;;
21754;SDS011;11039;50.028;19.938;2023-07-31T14:55:24;4.35;;;2.58;;
21754;SDS011;11039;50.028;19.938;2023-07-31T14:57:50;5.45;;;2.80;;
21754;SDS011;11039;50.028;19.938;2023-07-31T15:00:16;5.20;;;2.65;;
21754;SDS011;11039;50.028;19.938;2023-07-31T15:02:42;6.55;;;2.72;;
21754;SDS011;11039;50.028;19.938;2023-07-31T15:05:08;5.72;;;2.75;;
21754;SDS011;11039;50.028;19.938;2023-07-31T15:07:35;4.55;;;2.90;;
21754;SDS011;11039;50.028;19.938;2023-07-31T15:10:01;6.57;;;3.15;;
21754;SDS011;11039;50.028;19.938;2023-07-31T15:12:28;6.22;;;2.80;;
21754;SDS011;11039;50.028;19.938;2023-07-31T15:14:54;5.68;;;2.88;;
21754;SDS011;11039;50.028;19.938;2023-07-31T15:17:20;5.05;;;2.70;;